Time;durP1;ratioP1;P1;durP2;ratioP2;P2;SDS_P1;SDS_P2;PMS_P1;PMS_P2;Temp;Humidity;BMP_temperature;BMP_pressure;BME280_temperature;BME280_humidity;BME280_pressure;Samples;Min_cycle;Max_cycle;Signal;HPM_P1;HPM_P2
2022/03/09 00:02:17;;;;;;;13.80;5.47;;;28.70;74.90;;;;;;5086197;28;20024;-41
2022/03/09 00:04:43;;;;;;;17.75;5.90;;;28.70;74.60;;;;;;5086378;28;20027;-41
2022/03/09 00:07:10;;;;;;;15.23;5.55;;;28.60;74.40;;;;;;5086687;28;20208;-45
2022/03/09 00:09:36;;;;;;;16.20;5.47;;;28.60;74.10;;;;;;5086704;28;20094;-45
2022/03/09 00:12:04;;;;;;;10.45;5.15;;;28.60;74.60;;;;;;5086406;28;20057;-40
2022/03/09 00:14:32;;;;;;;11.32;5.43;;;28.60;73.80;;;;;;5087227;28;20020;-42
2022/03/09 00:16:58;;;;;;;14.63;5.25;;;28.60;73.50;;;;;;5086328;28;20033;-39
2022/03/09 00:19:25;;;;;;;20.92;6.47;;;28.60;73.20;;;;;;5086798;28;20086;-43
2022/03/09 00:21:52;;;;;;;18.77;8.07;;;28.60;73.20;;;;;;5086506;28;20084;-43
2022/03/09 00:24:19;;;;;;;15.65;6.35;;;28.50;73.20;;;;;;5086821;28;20082;-44
2022/03/09 00:26:46;;;;;;;14.65;6.07;;;28.50;73.20;;;;;;5086225;28;20044;-44
2022/03/09 00:29:13;;;;;;;13.52;5.68;;;28.50;73.20;;;;;;5087068;28;20186;-40
2022/03/09 00:31:39;;;;;;;16.75;6.47;;;28.50;73.40;;;;;;5085313;28;20035;-41
2022/03/09 00:34:06;;;;;;;14.38;5.72;;;28.50;73.40;;;;;;5086684;28;20025;-45
2022/03/09 00:36:33;;;;;;;13.10;5.72;;;28.50;73.20;;;;;;5086554;28;20029;-45
2022/03/09 00:38:59;;;;;;;18.05;6.60;;;28.50;73.20;;;;;;5086673;28;20036;-39
2022/03/09 00:41:26;;;;;;;14.45;5.85;;;28.40;73.20;;;;;;5086060;28;20016;-41
2022/03/09 00:43:53;;;;;;;18.95;6.65;;;28.40;72.90;;;;;;5085434;28;20336;-41
2022/03/09 00:46:20;;;;;;;14.40;6.30;;;28.40;73.10;;;;;;5085659;28;20024;-41
2022/03/09 00:48:46;;;;;;;16.20;9.43;;;28.40;73.00;;;;;;5086286;28;20029;-47
2022/03/09 00:51:13;;;;;;;19.00;10.48;;;28.40;73.00;;;;;;5085795;28;20335;-41
2022/03/09 00:53:40;;;;;;;33.88;18.27;;;28.30;72.80;;;;;;5086093;28;20056;-41
2022/03/09 00:56:06;;;;;;;39.33;26.05;;;28.40;72.90;;;;;;5085794;28;20308;-43
2022/03/09 00:58:33;;;;;;;30.20;17.65;;;28.40;72.80;;;;;;5085892;28;20196;-44
2022/03/09 01:01:00;;;;;;;19.83;12.35;;;28.30;72.90;;;;;;5085377;28;20039;-44
2022/03/09 01:03:26;;;;;;;22.15;11.15;;;28.30;73.00;;;;;;5085911;28;20066;-43
2022/03/09 01:05:55;;;;;;;22.52;9.18;;;28.30;72.90;;;;;;5085421;28;20059;-44
2022/03/09 01:08:24;;;;;;;25.20;12.65;;;28.30;72.60;;;;;;5085659;28;20092;-47
2022/03/09 01:10:51;;;;;;;22.95;12.00;;;28.30;72.60;;;;;;5085672;28;20335;-43
2022/03/09 01:13:17;;;;;;;26.05;10.05;;;28.30;72.60;;;;;;5085651;28;20204;-48
2022/03/09 01:15:44;;;;;;;22.83;8.57;;;28.30;72.70;;;;;;5085296;28;20369;-47
2022/03/09 01:18:12;;;;;;;19.83;7.72;;;28.20;72.50;;;;;;5085283;28;20020;-41
2022/03/09 01:20:38;;;;;;;22.10;7.00;;;28.20;72.90;;;;;;5085442;28;20092;-43
2022/03/09 01:23:05;;;;;;;19.90;7.20;;;28.20;72.50;;;;;;5085438;28;20040;-41
2022/03/09 01:25:31;;;;;;;16.95;6.22;;;28.20;72.20;;;;;;5085140;28;20027;-42
2022/03/09 01:27:58;;;;;;;16.85;6.93;;;28.20;72.40;;;;;;5085241;28;20025;-42
2022/03/09 01:30:25;;;;;;;17.33;6.95;;;28.20;72.30;;;;;;5084872;28;20371;-41
2022/03/09 01:32:51;;;;;;;15.13;7.28;;;28.20;72.20;;;;;;5085163;28;20024;-52
2022/03/09 01:35:19;;;;;;;17.20;6.65;;;28.20;72.00;;;;;;5085338;28;20021;-47
2022/03/09 01:37:46;;;;;;;22.38;7.00;;;28.20;72.20;;;;;;5085188;28;20309;-43
2022/03/09 01:40:13;;;;;;;18.48;7.30;;;28.20;72.10;;;;;;5085061;28;20020;-49
2022/03/09 01:42:43;;;;;;;14.98;7.30;;;28.20;72.00;;;;;;5084975;28;20021;-44
2022/03/09 01:45:12;;;;;;;13.80;6.93;;;28.20;71.90;;;;;;5100331;28;20028;-42
2022/03/09 01:47:39;;;;;;;15.82;7.22;;;28.20;71.30;;;;;;5084863;28;20028;-43
2022/03/09 01:50:10;;;;;;;13.07;7.10;;;28.20;71.80;;;;;;5084387;28;20024;-42
2022/03/09 01:52:39;;;;;;;16.27;7.30;;;28.20;71.50;;;;;;5084660;28;20036;-44
2022/03/09 01:55:06;;;;;;;17.00;7.15;;;28.10;71.30;;;;;;5084453;28;20062;-40
2022/03/09 01:57:33;;;;;;;9.73;6.75;;;28.20;71.30;;;;;;5084933;28;20111;-47
2022/03/09 02:00:01;;;;;;;15.55;6.88;;;28.20;70.80;;;;;;5084352;28;20061;-48
2022/03/09 02:02:27;;;;;;;11.95;7.28;;;28.10;71.00;;;;;;5084497;28;20040;-46
2022/03/09 02:04:54;;;;;;;13.23;6.93;;;28.10;71.20;;;;;;5084394;28;20383;-48
2022/03/09 02:09:41;;;;;;;17.90;7.25;;;28.20;71.00;;;;;;5084365;28;20036;-43
2022/03/09 02:10:10;;;;;;;16.85;7.88;;;28.20;71.20;;;;;;5084148;28;20036;-41
2022/03/09 02:12:38;;;;;;;15.90;6.80;;;28.20;71.40;;;;;;5084393;28;20020;-41
2022/03/09 02:15:07;;;;;;;15.30;7.22;;;28.20;71.10;;;;;;5083848;28;20025;-49
2022/03/09 02:17:34;;;;;;;13.05;6.88;;;28.20;71.10;;;;;;5084321;28;20104;-46
2022/03/09 02:20:00;;;;;;;17.55;6.70;;;28.30;71.30;;;;;;5084307;28;20021;-42
2022/03/09 02:22:37;;;;;;;12.40;7.25;;;28.20;71.10;;;;;;5084181;28;20099;-41
2022/03/09 02:25:14;;;;;;;14.55;7.68;;;28.20;71.30;;;;;;5084225;28;20067;-48
2022/03/09 02:27:41;;;;;;;16.02;7.55;;;28.30;71.30;;;;;;5084166;28;20251;-43
2022/03/09 02:30:12;;;;;;;11.43;6.97;;;28.20;71.20;;;;;;5083730;28;20119;-39
2022/03/09 02:32:47;;;;;;;18.10;7.43;;;28.20;71.10;;;;;;5083403;28;20032;-40
2022/03/09 02:35:15;;;;;;;11.35;7.13;;;28.30;71.30;;;;;;5063877;28;20320;-43
2022/03/09 02:37:46;;;;;;;13.70;7.60;;;28.20;71.50;;;;;;5064517;28;20208;-40
2022/03/09 02:40:15;;;;;;;17.05;7.50;;;28.20;71.40;;;;;;5064123;28;20035;-41
2022/03/09 02:42:42;;;;;;;11.77;7.55;;;28.20;71.40;;;;;;5063832;28;20033;-41
2022/03/09 02:45:11;;;;;;;16.25;7.55;;;28.20;71.30;;;;;;5063883;28;20040;-39
2022/03/09 02:47:42;;;;;;;20.60;7.80;;;28.30;71.40;;;;;;5064018;28;20029;-43
2022/03/09 02:50:15;;;;;;;9.50;7.30;;;28.30;71.30;;;;;;5063882;28;20340;-44
2022/03/09 02:52:42;;;;;;;16.42;7.78;;;28.30;71.30;;;;;;5063906;28;20025;-46
2022/03/09 02:55:12;;;;;;;11.00;7.70;;;28.30;71.30;;;;;;5063798;28;20075;-41
2022/03/09 02:57:39;;;;;;;13.02;7.22;;;28.30;71.30;;;;;;5045841;28;20032;-42
2022/03/09 03:00:09;;;;;;;13.35;7.43;;;28.30;71.10;;;;;;5063502;28;20028;-40
2022/03/09 03:02:36;;;;;;;148.55;133.50;;;28.20;71.30;;;;;;5063471;28;20041;-41
2022/03/09 03:05:03;;;;;;;70.32;63.25;;;28.20;71.00;;;;;;5063535;28;20041;-42
2022/03/09 03:07:30;;;;;;;94.20;85.55;;;28.20;71.40;;;;;;5067893;28;20092;-45
2022/03/09 03:09:59;;;;;;;21.90;18.98;;;28.20;70.90;;;;;;5067460;28;20049;-42
2022/03/09 03:12:25;;;;;;;18.70;15.02;;;28.20;71.10;;;;;;5067775;28;20084;-43
2022/03/09 03:14:52;;;;;;;30.73;16.15;;;28.20;70.80;;;;;;5067326;28;20033;-48
2022/03/09 03:17:20;;;;;;;21.02;12.77;;;28.20;70.80;;;;;;5067472;28;20021;-42
2022/03/09 03:19:46;;;;;;;24.70;20.70;;;28.20;70.80;;;;;;5067495;28;20029;-42
2022/03/09 03:22:13;;;;;;;27.08;22.42;;;28.20;71.30;;;;;;5067483;28;20085;-44
2022/03/09 03:24:39;;;;;;;24.77;18.83;;;28.20;71.40;;;;;;5067455;28;20021;-42
2022/03/09 03:27:06;;;;;;;26.00;17.73;;;28.20;71.30;;;;;;5067487;28;20033;-38
2022/03/09 03:29:32;;;;;;;25.85;16.95;;;28.20;71.40;;;;;;5067471;28;20088;-43
2022/03/09 03:31:59;;;;;;;18.98;13.80;;;28.20;71.40;;;;;;5065251;28;20385;-39
2022/03/09 03:34:25;;;;;;;18.02;12.40;;;28.20;71.80;;;;;;5067830;28;20039;-43
2022/03/09 03:36:52;;;;;;;16.88;12.05;;;28.20;71.80;;;;;;5066374;28;20055;-40
2022/03/09 03:40:05;;;;;;;15.00;11.13;;;28.20;72.00;;;;;;5067771;28;20301;-45
2022/03/09 03:42:32;;;;;;;14.30;9.73;;;28.20;72.30;;;;;;5067297;28;20025;-41
2022/03/09 03:44:59;;;;;;;13.43;10.43;;;28.20;73.40;;;;;;5067288;28;20036;-43
2022/03/09 03:47:25;;;;;;;12.77;9.55;;;28.20;73.70;;;;;;5067054;28;20019;-42
2022/03/09 03:49:52;;;;;;;15.45;12.00;;;28.10;73.90;;;;;;5066931;28;20025;-41
2022/03/09 03:52:19;;;;;;;17.42;12.95;;;28.10;73.80;;;;;;5067162;28;20336;-40
2022/03/09 03:54:45;;;;;;;20.67;18.63;;;28.10;74.10;;;;;;5067034;28;20336;-41
2022/03/09 03:57:12;;;;;;;14.48;11.05;;;28.10;74.60;;;;;;5066977;28;20033;-37
2022/03/09 03:59:38;;;;;;;13.20;11.48;;;28.10;74.80;;;;;;5066986;28;20062;-41
2022/03/09 04:02:05;;;;;;;13.38;10.13;;;28.10;74.50;;;;;;5067066;28;20017;-40
2022/03/09 04:04:31;;;;;;;13.40;10.95;;;28.00;74.50;;;;;;5067332;28;20044;-47
2022/03/09 04:06:59;;;;;;;11.80;10.52;;;28.10;74.60;;;;;;5066651;28;20086;-41
2022/03/09 04:09:26;;;;;;;13.38;11.00;;;28.00;74.60;;;;;;5067207;28;20305;-40
2022/03/09 04:11:52;;;;;;;14.13;11.15;;;28.00;74.60;;;;;;5066604;28;20031;-41
2022/03/09 04:14:22;;;;;;;13.40;10.85;;;28.00;74.90;;;;;;5067025;28;20013;-42
2022/03/09 04:16:49;;;;;;;13.75;10.90;;;28.00;75.10;;;;;;5066424;28;20067;-44
2022/03/09 04:19:16;;;;;;;15.05;10.98;;;28.00;75.70;;;;;;5066986;28;20024;-40
2022/03/09 04:21:43;;;;;;;13.80;10.02;;;28.00;75.50;;;;;;5066344;28;20064;-41
2022/03/09 04:24:10;;;;;;;12.50;10.80;;;28.00;75.30;;;;;;5066817;28;20088;-44
2022/03/09 04:26:36;;;;;;;15.77;10.27;;;28.00;75.90;;;;;;5066405;28;20096;-41
2022/03/09 04:29:03;;;;;;;11.55;10.10;;;28.00;75.80;;;;;;5066653;28;20025;-42
2022/03/09 04:31:30;;;;;;;12.85;10.10;;;28.00;75.30;;;;;;5066160;28;20070;-40
2022/03/09 04:33:56;;;;;;;15.32;10.45;;;27.90;75.40;;;;;;5066319;28;20032;-40
2022/03/09 04:36:23;;;;;;;12.00;10.35;;;28.00;75.50;;;;;;5066040;28;20021;-40
2022/03/09 04:38:49;;;;;;;16.17;10.63;;;28.00;75.80;;;;;;5066473;28;20021;-41
2022/03/09 04:41:16;;;;;;;11.95;9.75;;;27.90;75.80;;;;;;5066151;28;20312;-41
2022/03/09 04:43:43;;;;;;;11.20;10.00;;;27.90;75.40;;;;;;5066451;28;20024;-41
2022/03/09 04:46:09;;;;;;;11.35;10.13;;;27.90;75.20;;;;;;5066054;28;20041;-47
2022/03/09 04:48:36;;;;;;;12.48;9.88;;;27.90;75.40;;;;;;5066385;28;20021;-44
2022/03/09 04:51:04;;;;;;;11.10;9.30;;;27.90;75.80;;;;;;5065879;28;20225;-40
2022/03/09 04:53:31;;;;;;;12.18;10.02;;;27.90;75.50;;;;;;5066044;28;20020;-41
2022/03/09 04:55:58;;;;;;;12.85;9.80;;;27.90;75.50;;;;;;5065915;28;20025;-40
2022/03/09 04:58:25;;;;;;;13.07;9.82;;;27.90;75.40;;;;;;5065972;28;20029;-48
2022/03/09 05:00:53;;;;;;;13.07;10.63;;;27.80;75.60;;;;;;5066127;28;20032;-41
2022/03/09 05:03:19;;;;;;;12.23;10.25;;;27.80;75.40;;;;;;5065987;28;20039;-42
2022/03/09 05:05:46;;;;;;;15.30;10.52;;;27.80;75.50;;;;;;5065518;28;20080;-40
2022/03/09 05:08:13;;;;;;;12.10;9.40;;;27.70;76.00;;;;;;5065765;28;20227;-41
2022/03/09 05:10:39;;;;;;;12.75;10.18;;;27.60;76.20;;;;;;5065469;28;20037;-43
2022/03/09 05:13:06;;;;;;;15.77;10.52;;;27.60;76.70;;;;;;5065553;28;20039;-40
2022/03/09 05:15:32;;;;;;;15.25;10.20;;;27.50;77.10;;;;;;5065766;28;20315;-47
2022/03/09 05:17:59;;;;;;;13.15;9.68;;;27.40;77.70;;;;;;5065485;28;20021;-46
2022/03/09 05:20:26;;;;;;;11.75;9.40;;;27.40;78.20;;;;;;5065622;28;20029;-47
2022/03/09 05:22:52;;;;;;;13.75;9.60;;;27.30;79.10;;;;;;5065678;28;20037;-41
2022/03/09 05:25:20;;;;;;;10.50;8.93;;;27.20;79.50;;;;;;5065649;28;20050;-46
2022/03/09 05:27:46;;;;;;;15.13;8.90;;;27.20;79.60;;;;;;5065177;28;20033;-40
2022/03/09 05:30:13;;;;;;;11.10;8.68;;;27.30;79.40;;;;;;5064744;28;20070;-40
2022/03/09 05:32:41;;;;;;;11.23;8.65;;;27.30;79.30;;;;;;5065084;28;20216;-38
2022/03/09 05:35:11;;;;;;;11.80;8.23;;;27.30;79.40;;;;;;5065363;28;20331;-41
2022/03/09 05:37:40;;;;;;;19.42;8.02;;;27.30;79.40;;;;;;5065500;28;20044;-46
2022/03/09 05:40:09;;;;;;;12.00;7.30;;;27.30;79.70;;;;;;5065287;28;20090;-40
2022/03/09 05:42:36;;;;;;;11.32;7.35;;;27.20;79.50;;;;;;5064961;28;20044;-40
2022/03/09 05:45:04;;;;;;;8.98;6.95;;;27.20;79.90;;;;;;5065372;28;20325;-43
2022/03/09 05:47:31;;;;;;;10.32;6.75;;;27.10;80.20;;;;;;5065008;28;20028;-41
2022/03/09 05:49:58;;;;;;;12.13;7.30;;;27.10;80.20;;;;;;5064614;28;20025;-43
2022/03/09 05:52:24;;;;;;;12.80;6.97;;;27.10;80.20;;;;;;5064773;28;20024;-41
2022/03/09 05:54:52;;;;;;;11.13;6.40;;;27.00;80.60;;;;;;5046872;28;20190;-46
2022/03/09 05:57:23;;;;;;;9.32;6.60;;;26.90;80.70;;;;;;5064933;28;20028;-49
2022/03/09 05:59:50;;;;;;;11.00;6.57;;;26.90;80.80;;;;;;5064918;28;20071;-45
2022/03/09 06:02:17;;;;;;;11.23;6.55;;;26.90;80.80;;;;;;5065137;28;20059;-44
2022/03/09 06:04:45;;;;;;;10.45;6.70;;;26.90;81.00;;;;;;5064303;28;20060;-49
2022/03/09 06:07:12;;;;;;;9.02;6.75;;;26.90;80.90;;;;;;5064905;28;20017;-43
2022/03/09 06:09:38;;;;;;;9.98;6.72;;;26.90;81.00;;;;;;5064602;28;20025;-48
2022/03/09 06:12:05;;;;;;;10.43;6.13;;;26.90;81.10;;;;;;5064242;28;20041;-46
2022/03/09 06:14:32;;;;;;;11.32;6.88;;;26.90;81.30;;;;;;5064852;28;20017;-42
2022/03/09 06:16:59;;;;;;;10.35;6.25;;;26.90;81.30;;;;;;5064333;28;20037;-46
2022/03/09 06:19:25;;;;;;;12.30;7.47;;;26.80;81.40;;;;;;5064773;28;20192;-43
2022/03/09 06:21:52;;;;;;;10.43;6.57;;;26.90;81.80;;;;;;5064300;28;20043;-48
2022/03/09 06:24:18;;;;;;;17.23;6.55;;;26.80;82.00;;;;;;5064966;28;20036;-42
2022/03/09 06:26:45;;;;;;;12.68;6.60;;;26.80;81.90;;;;;;5064199;28;20139;-41
2022/03/09 06:29:13;;;;;;;8.75;6.47;;;26.80;82.40;;;;;;5064724;28;20070;-45
2022/03/09 06:31:43;;;;;;;11.65;6.68;;;26.70;82.60;;;;;;5064575;28;20025;-41
2022/03/09 06:34:09;;;;;;;9.80;6.18;;;26.70;82.50;;;;;;5064416;28;20021;-42
2022/03/09 06:36:36;;;;;;;13.77;6.90;;;26.70;82.50;;;;;;5064031;28;20032;-41
2022/03/09 06:39:03;;;;;;;10.73;6.65;;;26.70;82.60;;;;;;5064729;28;20020;-44
2022/03/09 06:41:30;;;;;;;12.07;6.22;;;26.70;82.60;;;;;;5063073;28;20045;-43
2022/03/09 06:43:56;;;;;;;9.57;6.55;;;26.70;82.50;;;;;;5064427;28;20044;-41
2022/03/09 06:46:23;;;;;;;8.65;5.90;;;26.70;82.50;;;;;;5064209;28;20051;-41
2022/03/09 06:48:49;;;;;;;11.82;6.57;;;26.70;82.50;;;;;;5064216;28;20256;-42
2022/03/09 06:51:16;;;;;;;10.32;6.55;;;26.70;82.60;;;;;;5063852;28;20025;-41
2022/03/09 06:53:44;;;;;;;11.32;6.70;;;26.70;82.40;;;;;;5064526;28;20052;-44
2022/03/09 06:56:11;;;;;;;9.25;6.15;;;26.60;82.60;;;;;;5063633;28;20023;-44
2022/03/09 06:58:37;;;;;;;10.55;6.28;;;26.60;82.50;;;;;;5064986;28;20017;-42
2022/03/09 07:01:04;;;;;;;9.38;6.93;;;26.70;82.50;;;;;;5064096;28;20071;-44
2022/03/09 07:03:31;;;;;;;9.50;6.60;;;26.70;82.50;;;;;;5064036;28;20025;-47
2022/03/09 07:05:57;;;;;;;10.80;6.65;;;26.70;82.60;;;;;;5063736;28;20060;-41
2022/03/09 07:08:24;;;;;;;10.27;6.57;;;26.60;82.50;;;;;;5063990;28;20071;-41
2022/03/09 07:10:50;;;;;;;9.27;6.38;;;26.60;82.60;;;;;;5063703;28;20029;-46
2022/03/09 07:13:17;;;;;;;10.48;6.60;;;26.60;82.60;;;;;;5063770;28;20025;-40
2022/03/09 07:15:44;;;;;;;9.43;6.68;;;26.60;82.70;;;;;;5063730;28;20041;-42
2022/03/09 07:18:10;;;;;;;10.63;6.63;;;26.60;82.70;;;;;;5063706;28;20032;-42
2022/03/09 07:20:37;;;;;;;9.10;7.25;;;26.60;83.30;;;;;;5063570;28;20021;-42
2022/03/09 07:23:03;;;;;;;9.73;6.88;;;26.50;83.40;;;;;;5064101;28;20021;-46
2022/03/09 07:25:30;;;;;;;11.20;7.07;;;26.50;83.40;;;;;;5063702;28;20037;-41
2022/03/09 07:27:57;;;;;;;9.25;6.78;;;26.50;83.50;;;;;;5063822;28;20044;-41
2022/03/09 07:30:23;;;;;;;12.70;6.80;;;26.50;83.30;;;;;;5063908;28;20043;-43
2022/03/09 07:32:50;;;;;;;13.25;7.05;;;26.60;83.40;;;;;;5063775;28;20023;-42
2022/03/09 07:35:16;;;;;;;10.93;7.32;;;26.50;83.70;;;;;;5063319;28;20087;-42
2022/03/09 07:37:43;;;;;;;13.45;7.22;;;26.50;83.60;;;;;;5063621;28;20048;-46
2022/03/09 07:40:10;;;;;;;11.18;7.22;;;26.50;83.70;;;;;;5063517;28;20040;-40
2022/03/09 07:42:37;;;;;;;10.32;6.97;;;26.50;83.70;;;;;;5063478;28;20060;-40
2022/03/09 07:45:06;;;;;;;11.98;7.18;;;26.60;83.60;;;;;;5063503;28;20025;-42
2022/03/09 07:47:34;;;;;;;12.30;7.35;;;26.50;83.50;;;;;;5063649;28;20021;-47
2022/03/09 07:50:01;;;;;;;11.10;7.00;;;26.50;83.40;;;;;;5063077;28;20329;-45
2022/03/09 07:52:27;;;;;;;10.60;7.40;;;26.50;83.60;;;;;;5065740;28;20013;-39
2022/03/09 07:54:54;;;;;;;12.20;7.30;;;26.50;83.60;;;;;;5067392;28;20087;-44
2022/03/09 07:57:20;;;;;;;9.32;6.75;;;26.50;83.70;;;;;;5067354;28;20138;-41
2022/03/09 07:59:47;;;;;;;12.27;6.78;;;26.50;83.50;;;;;;5067383;28;20031;-45
2022/03/09 08:02:14;;;;;;;10.85;6.65;;;26.50;83.40;;;;;;5067099;28;20037;-46
2022/03/09 08:04:40;;;;;;;10.95;6.47;;;26.50;83.40;;;;;;5066726;28;20027;-43
2022/03/09 08:07:07;;;;;;;9.75;6.45;;;26.50;83.10;;;;;;5066956;28;20033;-41
2022/03/09 08:09:33;;;;;;;10.25;6.70;;;26.50;83.00;;;;;;5067351;28;20025;-43
2022/03/09 08:12:00;;;;;;;9.30;6.45;;;26.50;82.80;;;;;;5066648;28;20028;-43
2022/03/09 08:14:26;;;;;;;11.15;6.90;;;26.50;82.90;;;;;;5067161;28;20029;-42
2022/03/09 08:16:53;;;;;;;10.77;6.90;;;26.50;83.10;;;;;;5066817;28;20084;-49
2022/03/09 08:19:19;;;;;;;10.23;7.07;;;26.40;83.00;;;;;;5067092;28;20056;-44
2022/03/09 08:21:46;;;;;;;9.85;6.40;;;26.50;83.10;;;;;;5066640;28;20041;-40
2022/03/09 08:24:12;;;;;;;9.10;6.22;;;26.50;83.00;;;;;;5067051;28;20017;-41
2022/03/09 08:26:39;;;;;;;11.07;5.93;;;26.50;82.90;;;;;;5066763;28;20037;-42
2022/03/09 08:29:05;;;;;;;8.77;6.22;;;26.50;82.90;;;;;;5067065;28;20029;-49
2022/03/09 08:31:32;;;;;;;9.50;6.20;;;26.50;82.90;;;;;;5066504;28;20036;-42
2022/03/09 08:33:59;;;;;;;9.95;6.35;;;26.50;83.00;;;;;;5066737;28;20271;-40
2022/03/09 08:36:25;;;;;;;9.57;6.22;;;26.50;83.10;;;;;;5066314;28;20051;-48
2022/03/09 08:38:52;;;;;;;10.05;6.38;;;26.50;83.20;;;;;;5066549;28;20211;-43
2022/03/09 08:41:18;;;;;;;9.77;5.95;;;26.50;83.60;;;;;;5066272;28;20032;-42
2022/03/09 08:43:45;;;;;;;9.02;5.93;;;26.50;83.20;;;;;;5066727;28;20100;-49
2022/03/09 08:46:11;;;;;;;9.90;5.93;;;26.50;83.10;;;;;;5066503;28;20091;-41
2022/03/09 08:48:39;;;;;;;7.43;5.78;;;26.50;83.00;;;;;;5066486;28;20284;-40
2022/03/09 08:51:07;;;;;;;10.63;6.20;;;26.50;82.90;;;;;;5065997;28;20044;-41
2022/03/09 08:53:34;;;;;;;9.02;6.40;;;26.50;82.80;;;;;;5066187;28;20021;-40
2022/03/09 08:56:01;;;;;;;8.82;6.30;;;26.60;82.80;;;;;;5066002;28;20029;-46
2022/03/09 08:58:27;;;;;;;11.60;6.32;;;26.50;82.70;;;;;;5066443;28;20016;-42
2022/03/09 09:00:54;;;;;;;10.77;6.90;;;26.60;82.80;;;;;;5065985;28;20033;-47
2022/03/09 09:03:20;;;;;;;9.73;6.43;;;26.60;82.80;;;;;;5064775;28;20043;-42
2022/03/09 09:05:48;;;;;;;9.07;6.47;;;26.60;82.70;;;;;;5065887;28;20048;-41
2022/03/09 09:08:15;;;;;;;11.85;6.78;;;26.60;82.70;;;;;;5066535;28;20043;-46
2022/03/09 09:10:41;;;;;;;10.50;7.05;;;26.60;82.70;;;;;;5065681;28;20029;-41
2022/03/09 09:13:08;;;;;;;11.15;6.60;;;26.70;82.80;;;;;;5065777;28;20048;-44
2022/03/09 09:15:34;;;;;;;9.55;6.20;;;26.60;82.70;;;;;;5066036;28;20362;-42
2022/03/09 09:18:03;;;;;;;9.55;6.43;;;26.60;82.70;;;;;;5065734;28;20044;-42
2022/03/09 09:20:30;;;;;;;9.25;6.55;;;26.60;82.70;;;;;;5065501;28;20033;-43
2022/03/09 09:22:57;;;;;;;10.80;6.85;;;26.60;82.70;;;;;;5047828;28;20055;-47
2022/03/09 09:25:26;;;;;;;10.65;5.97;;;26.60;83.20;;;;;;5065741;28;20025;-40
2022/03/09 09:27:56;;;;;;;11.15;6.07;;;26.60;82.70;;;;;;5065684;28;20378;-42
2022/03/09 09:30:26;;;;;;;8.98;6.20;;;26.60;82.70;;;;;;5065034;28;20025;-44
2022/03/09 09:32:53;;;;;;;9.32;6.15;;;26.60;82.80;;;;;;5065352;28;20035;-41
2022/03/09 09:35:20;;;;;;;10.98;6.22;;;26.60;82.80;;;;;;5064939;28;20188;-45
2022/03/09 09:37:47;;;;;;;8.48;6.07;;;26.60;82.70;;;;;;5065233;28;20201;-43
2022/03/09 09:40:14;;;;;;;8.73;5.75;;;26.60;82.70;;;;;;5064920;28;20202;-41
2022/03/09 09:42:42;;;;;;;10.70;6.20;;;26.60;82.60;;;;;;5064929;28;20020;-41
2022/03/09 09:45:09;;;;;;;11.07;5.95;;;26.60;82.50;;;;;;5064924;28;20063;-41
2022/03/09 09:47:36;;;;;;;12.43;6.40;;;26.60;82.60;;;;;;5065190;28;20216;-42
2022/03/09 09:50:06;;;;;;;10.40;6.07;;;26.60;82.60;;;;;;5064951;28;20041;-41
2022/03/09 09:52:33;;;;;;;11.48;6.70;;;26.60;82.80;;;;;;5064865;28;20028;-41
2022/03/09 09:55:02;;;;;;;11.25;6.40;;;26.60;82.80;;;;;;5064809;28;20071;-45
2022/03/09 09:57:32;;;;;;;9.07;6.05;;;26.60;82.70;;;;;;5064581;28;20055;-39
2022/03/09 09:59:58;;;;;;;8.20;5.80;;;26.60;82.80;;;;;;5064963;28;20325;-45
2022/03/09 10:02:25;;;;;;;10.18;5.60;;;26.60;82.30;;;;;;5064669;28;20029;-44
2022/03/09 10:04:52;;;;;;;9.02;5.90;;;26.60;82.30;;;;;;5064593;28;20075;-41
2022/03/09 10:07:19;;;;;;;7.93;5.57;;;26.60;82.20;;;;;;5064584;28;20020;-43
2022/03/09 10:09:46;;;;;;;10.15;5.97;;;26.60;82.10;;;;;;5064490;28;20071;-40
2022/03/09 10:12:13;;;;;;;9.45;6.22;;;26.60;82.00;;;;;;5046570;28;20048;-45
2022/03/09 10:14:51;;;;;;;9.85;5.63;;;26.60;82.10;;;;;;5064194;28;20025;-44
2022/03/09 10:17:21;;;;;;;8.90;6.55;;;26.60;82.10;;;;;;5064342;28;20052;-42
2022/03/09 10:19:51;;;;;;;8.80;6.45;;;26.60;82.20;;;;;;5064363;28;20032;-47
2022/03/09 10:22:24;;;;;;;9.85;6.63;;;26.60;82.40;;;;;;5064312;28;20028;-41
2022/03/09 10:24:52;;;;;;;7.45;5.97;;;26.60;82.50;;;;;;5064080;28;20471;-43
2022/03/09 10:27:38;;;;;;;10.48;6.65;;;26.60;82.50;;;;;;5064215;28;20029;-41
2022/03/09 10:30:09;;;;;;;7.57;6.43;;;26.60;82.40;;;;;;5063939;28;20355;-43
2022/03/09 10:33:06;;;;;;;14.25;6.50;;;26.60;82.50;;;;;;5064125;28;20205;-42
2022/03/09 10:35:33;;;;;;;8.88;6.90;;;26.60;82.50;;;;;;5051802;28;20044;-41
2022/03/09 10:38:07;;;;;;;9.88;6.88;;;26.60;82.40;;;;;;5064266;28;20047;-40
2022/03/09 10:40:44;;;;;;;8.25;6.90;;;26.60;82.40;;;;;;5046072;28;20040;-47
2022/03/09 10:43:15;;;;;;;10.15;7.22;;;26.60;82.30;;;;;;5064288;28;20029;-42
2022/03/09 10:46:01;;;;;;;14.20;7.07;;;26.60;82.30;;;;;;5063691;28;20037;-40
2022/03/09 10:48:52;;;;;;;10.68;6.68;;;26.60;82.30;;;;;;5064102;28;20036;-44
2022/03/09 10:51:25;;;;;;;9.88;7.15;;;26.60;82.40;;;;;;5046108;28;20033;-39
2022/03/09 10:53:52;;;;;;;8.82;6.95;;;26.60;82.30;;;;;;5064296;28;20024;-41
2022/03/09 10:56:20;;;;;;;10.55;6.63;;;26.60;82.30;;;;;;5063731;28;20061;-44
2022/03/09 10:58:47;;;;;;;8.77;6.68;;;26.60;82.40;;;;;;5063843;28;20374;-41
2022/03/09 11:01:23;;;;;;;11.63;6.53;;;26.60;82.50;;;;;;5045958;28;20029;-41
2022/03/09 11:03:50;;;;;;;12.63;6.93;;;26.60;82.50;;;;;;5064169;28;20056;-44
2022/03/09 11:06:17;;;;;;;11.98;6.93;;;26.60;82.60;;;;;;5063935;28;20063;-42
2022/03/09 11:08:43;;;;;;;10.85;7.18;;;26.60;82.60;;;;;;5063991;28;20040;-50
2022/03/09 11:11:10;;;;;;;8.98;6.85;;;26.60;82.70;;;;;;5063867;28;20048;-43
2022/03/09 11:13:38;;;;;;;18.42;7.78;;;26.60;82.90;;;;;;5071627;28;20067;-40
2022/03/09 11:16:06;;;;;;;15.20;7.03;;;26.50;82.90;;;;;;5083760;28;20312;-39
2022/03/09 11:18:34;;;;;;;13.48;7.00;;;26.50;83.00;;;;;;5083921;28;20101;-40
2022/03/09 11:21:09;;;;;;;17.08;7.03;;;26.50;83.10;;;;;;5083697;28;20024;-45
2022/03/09 11:23:39;;;;;;;12.30;7.40;;;26.60;83.10;;;;;;5083897;28;20028;-42
2022/03/09 11:26:11;;;;;;;13.27;7.53;;;26.50;83.10;;;;;;5083650;28;20248;-47
2022/03/09 11:28:45;;;;;;;12.55;7.15;;;26.50;83.20;;;;;;5087965;28;20044;-43
2022/03/09 11:31:14;;;;;;;12.05;7.53;;;26.50;83.40;;;;;;5087649;28;20087;-48
2022/03/09 11:33:51;;;;;;;15.68;7.50;;;26.50;83.40;;;;;;5086612;28;20024;-43
2022/03/09 11:36:30;;;;;;;11.48;7.47;;;26.50;83.40;;;;;;5085631;28;20031;-41
2022/03/09 11:39:17;;;;;;;13.43;7.38;;;26.40;83.50;;;;;;5086109;28;20024;-40
2022/03/09 11:41:44;;;;;;;16.90;7.55;;;26.40;83.50;;;;;;5086081;28;20040;-40
2022/03/09 11:44:20;;;;;;;10.05;7.10;;;26.40;83.40;;;;;;5086466;28;20051;-41
2022/03/09 11:47:07;;;;;;;11.93;7.07;;;26.50;83.50;;;;;;5085792;28;20033;-41
2022/03/09 11:49:36;;;;;;;12.70;6.85;;;26.50;83.60;;;;;;5086882;28;20087;-44
2022/03/09 11:52:10;;;;;;;11.10;7.13;;;26.50;84.00;;;;;;5086791;28;20044;-42
2022/03/09 11:54:41;;;;;;;11.48;7.40;;;26.50;83.50;;;;;;5086943;28;20033;-45
2022/03/09 11:57:08;;;;;;;10.90;6.97;;;26.50;83.50;;;;;;5087115;28;20036;-46
2022/03/09 11:59:34;;;;;;;11.02;7.63;;;26.50;83.50;;;;;;5087203;28;20042;-43
2022/03/09 12:02:10;;;;;;;10.05;7.85;;;26.50;83.50;;;;;;5087145;28;20268;-52
2022/03/09 12:04:40;;;;;;;10.13;7.18;;;26.50;83.60;;;;;;5086530;28;20044;-44
2022/03/09 12:07:07;;;;;;;10.43;7.50;;;26.50;83.60;;;;;;5087161;28;20278;-48
2022/03/09 12:10:04;;;;;;;12.73;7.32;;;26.50;83.50;;;;;;5086885;28;20036;-42
2022/03/09 12:12:32;;;;;;;10.65;7.80;;;26.50;83.50;;;;;;5086700;28;20300;-46
2022/03/09 12:15:09;;;;;;;15.70;7.53;;;26.40;83.30;;;;;;5086703;28;20036;-45
2022/03/09 12:17:37;;;;;;;11.25;7.80;;;26.50;83.40;;;;;;5087141;28;20027;-44
2022/03/09 12:20:25;;;;;;;13.68;7.80;;;26.50;83.20;;;;;;5087181;28;20044;-43
2022/03/09 12:23:00;;;;;;;15.40;8.40;;;26.40;82.90;;;;;;5087150;28;20156;-43
2022/03/09 12:25:47;;;;;;;13.23;7.82;;;26.50;83.00;;;;;;5087334;28;20255;-42
2022/03/09 12:28:35;;;;;;;13.95;8.75;;;26.50;82.90;;;;;;5087299;28;20020;-42
2022/03/09 12:31:23;;;;;;;11.95;7.80;;;26.50;83.50;;;;;;5086842;28;20366;-42
2022/03/09 12:33:53;;;;;;;8.98;7.30;;;26.50;83.00;;;;;;5086818;28;20028;-42
2022/03/09 12:36:28;;;;;;;11.38;7.78;;;26.50;83.50;;;;;;5086798;28;20036;-42
2022/03/09 12:39:01;;;;;;;12.40;7.20;;;26.50;83.20;;;;;;5085509;28;20059;-42
2022/03/09 12:41:33;;;;;;;12.90;7.60;;;26.40;83.20;;;;;;5086829;28;20032;-43
2022/03/09 12:44:05;;;;;;;12.25;8.55;;;26.40;83.30;;;;;;5087101;28;20358;-44
2022/03/09 12:46:32;;;;;;;;;;;26.40;83.30;;;;;;5087200;28;20086;-44